createdAt,value
2022-08-22T00:00:14.788Z,983.52
2022-08-22T00:00:30.307Z,983.51
2022-08-22T00:00:47.043Z,983.51
2022-08-22T00:01:02.292Z,983.53
2022-08-22T00:01:18.373Z,983.53
2022-08-22T00:01:34.505Z,983.52
2022-08-22T00:01:50.830Z,983.53
2022-08-22T00:02:09.009Z,983.52
2022-08-22T00:02:22.562Z,983.53
2022-08-22T00:02:39.243Z,983.53
2022-08-22T00:02:44.178Z,983.68
2022-08-22T00:02:46.055Z,983.87
2022-08-22T00:02:46.943Z,983.65
2022-08-22T00:02:47.466Z,983.88
2022-08-22T00:02:47.664Z,983.87
2022-08-22T00:02:49.120Z,983.73
2022-08-22T00:02:49.632Z,983.59
2022-08-22T00:02:52.978Z,983.92
2022-08-22T00:02:53.053Z,983.96
2022-08-22T00:02:53.247Z,983.88
2022-08-22T00:02:55.898Z,983.84
2022-08-22T00:02:56.361Z,983.87
2022-08-22T00:02:57.906Z,983.44
2022-08-22T00:02:58.750Z,983.65
2022-08-22T00:02:58.750Z,983.64
2022-08-22T00:02:58.874Z,983.63
2022-08-22T00:03:02.383Z,983.93
2022-08-22T00:03:06.939Z,983.44
2022-08-22T00:03:07.954Z,983.45
2022-08-22T00:03:09.334Z,983.51
2022-08-22T00:03:09.594Z,983.52
2022-08-22T00:03:27.125Z,983.53
2022-08-22T00:03:43.452Z,983.53
2022-08-22T00:03:58.717Z,983.54
2022-08-22T00:04:13.919Z,983.52
2022-08-22T00:04:33.507Z,983.52
2022-08-22T00:04:46.383Z,983.52
2022-08-22T00:05:02.759Z,983.5
2022-08-22T00:05:18.607Z,983.51
2022-08-22T00:05:35.615Z,983.5
2022-08-22T00:05:52.113Z,983.5
2022-08-22T00:06:07.210Z,983.5
2022-08-22T00:06:22.267Z,983.49
2022-08-22T00:06:38.001Z,983.49
2022-08-22T00:06:55.253Z,983.5
2022-08-22T00:07:10.138Z,983.51
2022-08-22T00:07:28.432Z,983.51
2022-08-22T00:07:42.080Z,983.49
2022-08-22T00:08:00.615Z,983.49
2022-08-22T00:08:15.269Z,983.49
2022-08-22T00:08:30.847Z,983.48
2022-08-22T00:08:46.960Z,983.47
2022-08-22T00:09:02.981Z,983.48
2022-08-22T00:09:18.218Z,983.47
2022-08-22T00:09:34.374Z,983.47
2022-08-22T00:09:52.288Z,983.5
2022-08-22T00:10:06.665Z,983.5
2022-08-22T00:10:25.410Z,983.49
2022-08-22T00:10:38.234Z,983.5
2022-08-22T00:10:55.508Z,983.5
2022-08-22T00:11:10.172Z,983.51
2022-08-22T00:11:27.099Z,983.51
2022-08-22T00:11:42.677Z,983.51
2022-08-22T00:11:59.343Z,983.52
2022-08-22T00:12:14.589Z,983.51
2022-08-22T00:12:30.552Z,983.52
2022-08-22T00:12:46.965Z,983.53
2022-08-22T00:13:02.116Z,983.52
2022-08-22T00:13:18.782Z,983.53
2022-08-22T00:13:34.822Z,983.53
2022-08-22T00:13:52.669Z,983.54
2022-08-22T00:14:06.463Z,983.54
2022-08-22T00:14:22.920Z,983.54
2022-08-22T00:14:38.757Z,983.53
2022-08-22T00:14:54.202Z,983.53
2022-08-22T00:15:16.389Z,983.53
2022-08-22T00:15:42.049Z,983.52
2022-08-22T00:15:44.292Z,983.53
2022-08-22T00:15:58.768Z,983.54
2022-08-22T00:16:14.890Z,983.53
2022-08-22T00:16:30.850Z,983.53
2022-08-22T00:16:47.582Z,983.53
2022-08-22T00:17:02.923Z,983.54
2022-08-22T00:17:17.869Z,983.53
2022-08-22T00:17:34.560Z,983.54
2022-08-22T00:17:52.801Z,983.53
2022-08-22T00:18:07.183Z,983.54
2022-08-22T00:18:22.537Z,983.55
2022-08-22T00:18:38.507Z,983.55
2022-08-22T00:18:54.468Z,983.55
2022-08-22T00:19:11.364Z,983.54
2022-08-22T00:19:26.988Z,983.54
2022-08-22T00:19:42.837Z,983.54
2022-08-22T00:19:59.057Z,983.53
2022-08-22T00:20:14.437Z,983.52
2022-08-22T00:20:30.658Z,983.53
2022-08-22T00:20:45.997Z,983.53
2022-08-22T00:21:03.296Z,983.52
2022-08-22T00:21:18.394Z,983.52
2022-08-22T00:21:35.424Z,983.53
2022-08-22T00:21:52.075Z,983.52
2022-08-22T00:22:07.436Z,983.52
2022-08-22T00:22:22.744Z,983.51
2022-08-22T00:22:39.153Z,983.51
2022-08-22T00:22:55.190Z,983.51
2022-08-22T00:23:10.889Z,983.51
2022-08-22T00:23:26.395Z,983.51
2022-08-22T00:23:41.975Z,983.51
2022-08-22T00:23:59.073Z,983.51
2022-08-22T00:24:14.607Z,983.51
2022-08-22T00:24:30.696Z,983.5
2022-08-22T00:24:46.860Z,983.5
2022-08-22T00:25:03.448Z,983.52
2022-08-22T00:25:26.132Z,983.51
2022-08-22T00:25:33.711Z,983.49
2022-08-22T00:25:50.362Z,983.52
2022-08-22T00:26:06.334Z,983.52
2022-08-22T00:26:22.677Z,983.51
2022-08-22T00:26:41.110Z,983.51
2022-08-22T00:26:55.074Z,983.5
2022-08-22T00:27:09.975Z,983.49
2022-08-22T00:27:26.945Z,983.49
2022-08-22T00:27:53.553Z,983.49
2022-08-22T00:27:59.632Z,983.5
2022-08-22T00:28:14.914Z,983.5
2022-08-22T00:28:31.817Z,983.49
2022-08-22T00:28:46.595Z,983.48
2022-08-22T00:29:02.795Z,983.49
2022-08-22T00:29:18.922Z,983.48
2022-08-22T00:29:34.473Z,983.48
2022-08-22T00:29:50.855Z,983.48
2022-08-22T00:30:06.480Z,983.49
2022-08-22T00:30:24.555Z,983.49
2022-08-22T00:30:39.900Z,983.49
2022-08-22T00:30:54.133Z,983.49
2022-08-22T00:31:11.033Z,983.48
2022-08-22T00:31:26.973Z,983.48
2022-08-22T00:31:43.286Z,983.47
2022-08-22T00:31:57.782Z,983.45
2022-08-22T00:32:14.673Z,983.46
2022-08-22T00:32:30.677Z,983.45
2022-08-22T00:32:48.053Z,983.46
2022-08-22T00:33:02.139Z,983.47
2022-08-22T00:33:18.980Z,983.48
2022-08-22T00:33:34.292Z,983.47
2022-08-22T00:33:50.284Z,983.46
2022-08-22T00:34:07.208Z,983.45
2022-08-22T00:34:25.227Z,983.45
2022-08-22T00:34:39.163Z,983.45
2022-08-22T00:34:54.384Z,983.46
2022-08-22T00:35:11.170Z,983.47
2022-08-22T00:35:26.155Z,983.47
2022-08-22T00:35:45.231Z,983.47
2022-08-22T00:35:58.170Z,983.47
2022-08-22T00:36:13.525Z,983.47
2022-08-22T00:36:30.709Z,983.48
2022-08-22T00:36:48.096Z,983.49
2022-08-22T00:37:02.593Z,983.49
2022-08-22T00:37:18.384Z,983.49
2022-08-22T00:37:35.110Z,983.49
2022-08-22T00:37:50.110Z,983.48
2022-08-22T00:38:07.478Z,983.48
2022-08-22T00:38:23.859Z,983.49
2022-08-22T00:38:39.029Z,983.48
2022-08-22T00:38:54.152Z,983.48
2022-08-22T00:39:10.328Z,983.47
2022-08-22T00:39:26.887Z,983.47
2022-08-22T00:39:41.865Z,983.48
2022-08-22T00:39:58.670Z,983.48
2022-08-22T00:40:13.914Z,983.48
2022-08-22T00:40:31.400Z,983.48
2022-08-22T00:40:46.699Z,983.47
2022-08-22T00:41:03.077Z,983.47
2022-08-22T00:41:19.672Z,983.48
2022-08-22T00:41:35.124Z,983.48
2022-08-22T00:41:51.085Z,983.49
2022-08-22T00:42:06.272Z,983.51
2022-08-22T00:42:29.498Z,983.5
2022-08-22T00:42:38.342Z,983.49
2022-08-22T00:42:55.347Z,983.5
2022-08-22T00:43:10.052Z,983.49
2022-08-22T00:43:28.743Z,983.49
2022-08-22T00:43:42.131Z,983.49
2022-08-22T00:43:59.148Z,983.48
2022-08-22T00:44:14.594Z,983.48
2022-08-22T00:44:29.788Z,983.48
2022-08-22T00:44:47.402Z,983.47
2022-08-22T00:45:01.815Z,983.48
2022-08-22T00:45:18.466Z,983.48
2022-08-22T00:45:34.197Z,983.48
2022-08-22T00:45:50.508Z,983.48
2022-08-22T00:46:05.848Z,983.47
2022-08-22T00:46:23.323Z,983.47
2022-08-22T00:46:39.425Z,983.48
2022-08-22T00:46:58.116Z,983.48
2022-08-22T00:47:11.030Z,983.48
2022-08-22T00:47:27.092Z,983.49
2022-08-22T00:47:42.983Z,983.48
2022-08-22T00:47:59.556Z,983.49
2022-08-22T00:48:14.841Z,983.48
2022-08-22T00:48:31.374Z,983.48
2022-08-22T00:48:46.487Z,983.48
2022-08-22T00:49:02.171Z,983.47
2022-08-22T00:49:18.812Z,983.47
2022-08-22T00:49:37.504Z,983.47
2022-08-22T00:49:50.355Z,983.47
2022-08-22T00:50:06.608Z,983.45
2022-08-22T00:50:21.915Z,983.45
2022-08-22T00:50:38.573Z,983.44
2022-08-22T00:50:53.847Z,983.45
2022-08-22T00:51:11.269Z,983.44
2022-08-22T00:51:26.024Z,983.44
2022-08-22T00:51:43.107Z,983.44
2022-08-22T00:51:58.579Z,983.45
2022-08-22T00:52:15.049Z,983.45
2022-08-22T00:52:30.853Z,983.45
2022-08-22T00:52:47.244Z,983.45
2022-08-22T00:53:04.441Z,983.45
2022-08-22T00:53:17.675Z,983.46
2022-08-22T00:53:35.181Z,983.44
2022-08-22T00:53:49.933Z,983.45
2022-08-22T00:54:16.772Z,983.45
2022-08-22T00:54:21.863Z,983.46
2022-08-22T00:54:39.202Z,983.45
2022-08-22T00:54:54.342Z,983.45
2022-08-22T00:55:13.261Z,983.46
2022-08-22T00:55:26.802Z,983.45
2022-08-22T00:55:41.801Z,983.45
2022-08-22T00:55:58.571Z,983.44
2022-08-22T00:56:14.050Z,983.44
2022-08-22T00:56:31.031Z,983.45
2022-08-22T00:56:46.714Z,983.44
2022-08-22T00:57:03.353Z,983.45
2022-08-22T00:57:18.692Z,983.44
2022-08-22T00:57:37.343Z,983.45
2022-08-22T00:57:50.208Z,983.45
2022-08-22T00:58:05.739Z,983.46
2022-08-22T00:58:22.948Z,983.47
2022-08-22T00:58:38.232Z,983.46
2022-08-22T00:58:55.021Z,983.46
2022-08-22T00:59:23.276Z,983.45
2022-08-22T00:59:27.336Z,983.45
2022-08-22T00:59:42.280Z,983.46
2022-08-22T00:59:58.624Z,983.47
2022-08-22T01:00:14.282Z,983.47
2022-08-22T01:00:35.076Z,983.47
2022-08-22T01:00:46.838Z,983.49
2022-08-22T01:01:01.904Z,983.49
2022-08-22T01:01:18.965Z,983.5
2022-08-22T01:01:34.653Z,983.5
2022-08-22T01:01:50.451Z,983.51
2022-08-22T01:02:05.958Z,983.52
2022-08-22T01:02:23.074Z,983.52
2022-08-22T01:02:38.713Z,983.52
2022-08-22T01:02:54.633Z,983.54
2022-08-22T01:03:11.585Z,983.54
2022-08-22T01:03:25.508Z,983.54
2022-08-22T01:03:42.205Z,983.55
2022-08-22T01:03:58.115Z,983.55
2022-08-22T01:04:14.346Z,983.56
2022-08-22T01:04:29.969Z,983.57
2022-08-22T01:04:46.372Z,983.58
2022-08-22T01:05:02.315Z,983.58
2022-08-22T01:05:20.558Z,983.58
2022-08-22T01:05:34.476Z,983.59
2022-08-22T01:05:51.500Z,983.6
2022-08-22T01:06:07.123Z,983.59
2022-08-22T01:06:21.556Z,983.6
2022-08-22T01:06:39.921Z,983.59
2022-08-22T01:06:54.384Z,983.59
2022-08-22T01:07:10.509Z,983.6
2022-08-22T01:07:29.083Z,983.6
2022-08-22T01:07:42.935Z,983.61
2022-08-22T01:07:58.459Z,983.61
2022-08-22T01:08:14.751Z,983.61
2022-08-22T01:08:29.922Z,983.62
2022-08-22T01:08:46.045Z,983.61
2022-08-22T01:09:02.173Z,983.61
2022-08-22T01:09:18.791Z,983.62
2022-08-22T01:09:35.007Z,983.62
2022-08-22T01:09:49.952Z,983.62
2022-08-22T01:10:06.381Z,983.62
2022-08-22T01:10:21.998Z,983.63
2022-08-22T01:10:39.302Z,983.62
2022-08-22T01:10:54.464Z,983.61
2022-08-22T01:11:10.834Z,983.61
2022-08-22T01:11:27.420Z,983.6
2022-08-22T01:11:44.085Z,983.62
2022-08-22T01:11:58.739Z,983.61
2022-08-22T01:12:14.307Z,983.6
2022-08-22T01:12:31.111Z,983.61
2022-08-22T01:12:46.307Z,983.61
2022-08-22T01:13:03.334Z,983.6
2022-08-22T01:13:18.302Z,983.59
2022-08-22T01:13:34.674Z,983.58
2022-08-22T01:13:50.656Z,983.58
2022-08-22T01:14:09.387Z,983.57
2022-08-22T01:14:34.450Z,983.57
2022-08-22T01:14:38.251Z,983.55
2022-08-22T01:14:54.348Z,983.53
2022-08-22T01:15:11.240Z,983.52
2022-08-22T01:15:26.623Z,983.52
2022-08-22T01:15:42.451Z,983.51
2022-08-22T01:15:58.997Z,983.51
2022-08-22T01:16:14.528Z,983.5
2022-08-22T01:16:30.869Z,983.48
2022-08-22T01:16:46.633Z,983.47
2022-08-22T01:17:01.424Z,983.45
2022-08-22T01:17:19.776Z,983.44
2022-08-22T01:17:34.044Z,983.44
2022-08-22T01:17:50.441Z,983.43
2022-08-22T01:18:05.856Z,983.42
2022-08-22T01:18:22.877Z,983.42
2022-08-22T01:18:38.689Z,983.41
2022-08-22T01:18:55.301Z,983.41
2022-08-22T01:19:09.913Z,983.39
2022-08-22T01:19:27.095Z,983.39
2022-08-22T01:19:42.183Z,983.38
2022-08-22T01:19:57.597Z,983.38
2022-08-22T01:20:14.250Z,983.37
2022-08-22T01:20:30.100Z,983.35
2022-08-22T01:20:46.770Z,983.34
2022-08-22T01:21:02.171Z,983.35
2022-08-22T01:21:24.121Z,983.35
2022-08-22T01:21:34.329Z,983.32
2022-08-22T01:21:50.729Z,983.33
2022-08-22T01:22:06.222Z,983.32
2022-08-22T01:22:22.070Z,983.31
2022-08-22T01:22:38.437Z,983.29
2022-08-22T01:22:53.999Z,983.3
2022-08-22T01:23:10.250Z,983.31
2022-08-22T01:23:26.174Z,983.31
2022-08-22T01:23:42.490Z,983.31
2022-08-22T01:23:59.693Z,983.28
2022-08-22T01:24:15.201Z,983.29
2022-08-22T01:24:29.858Z,983.27
2022-08-22T01:24:47.118Z,983.26
2022-08-22T01:25:02.285Z,983.27
2022-08-22T01:25:17.329Z,983.27
2022-08-22T01:25:34.998Z,983.27
2022-08-22T01:25:50.879Z,983.28
2022-08-22T01:26:06.943Z,983.3
2022-08-22T01:26:23.936Z,983.32
2022-08-22T01:26:38.376Z,983.32
2022-08-22T01:26:54.008Z,983.33
2022-08-22T01:27:10.974Z,983.34
2022-08-22T01:27:27.968Z,983.34
2022-08-22T01:27:41.998Z,983.35
2022-08-22T01:27:59.931Z,983.36
2022-08-22T01:28:13.635Z,983.35
2022-08-22T01:28:30.902Z,983.36
2022-08-22T01:28:45.543Z,983.36
2022-08-22T01:29:02.497Z,983.35
2022-08-22T01:29:17.662Z,983.36
2022-08-22T01:29:36.207Z,983.37
2022-08-22T01:29:50.373Z,983.35
2022-08-22T01:30:06.635Z,983.37
2022-08-22T01:30:23.375Z,983.37
2022-08-22T01:30:37.402Z,983.37
2022-08-22T01:30:54.822Z,983.36
2022-08-22T01:31:10.271Z,983.37
2022-08-22T01:31:26.853Z,983.37
2022-08-22T01:31:42.075Z,983.36
2022-08-22T01:31:58.574Z,983.37
2022-08-22T01:32:13.915Z,983.35
2022-08-22T01:32:31.938Z,983.36
2022-08-22T01:32:49.047Z,983.36
2022-08-22T01:33:03.084Z,983.35
2022-08-22T01:33:18.504Z,983.35
2022-08-22T01:33:34.214Z,983.34
2022-08-22T01:33:53.425Z,983.35
2022-08-22T01:34:06.946Z,983.35
2022-08-22T01:34:22.643Z,983.33
2022-08-22T01:34:37.898Z,983.33
2022-08-22T01:34:54.672Z,983.34
2022-08-22T01:35:10.297Z,983.34
2022-08-22T01:35:27.138Z,983.34
2022-08-22T01:35:42.606Z,983.33
2022-08-22T01:35:59.449Z,983.33
2022-08-22T01:36:14.103Z,983.33
2022-08-22T01:36:31.538Z,983.34
2022-08-22T01:36:47.358Z,983.32
2022-08-22T01:37:01.877Z,983.31
2022-08-22T01:37:18.824Z,983.31
2022-08-22T01:37:34.371Z,983.32
2022-08-22T01:37:51.168Z,983.33
2022-08-22T01:38:06.622Z,983.33
2022-08-22T01:38:22.571Z,983.32
2022-08-22T01:38:39.813Z,983.31
2022-08-22T01:38:53.950Z,983.31
2022-08-22T01:39:10.769Z,983.33
2022-08-22T01:39:28.914Z,983.33
2022-08-22T01:39:42.790Z,983.33
2022-08-22T01:39:57.755Z,983.35
2022-08-22T01:40:15.262Z,983.36
2022-08-22T01:40:31.166Z,983.35
2022-08-22T01:40:53.306Z,983.36
2022-08-22T01:41:02.645Z,983.36
2022-08-22T01:41:17.800Z,983.35
2022-08-22T01:41:34.080Z,983.36
2022-08-22T01:41:49.922Z,983.36
2022-08-22T01:42:06.080Z,983.37
2022-08-22T01:42:23.544Z,983.36
2022-08-22T01:42:39.136Z,983.36
2022-08-22T01:42:55.398Z,983.37
2022-08-22T01:43:11.215Z,983.36
2022-08-22T01:43:58.862Z,983.37
2022-08-22T01:43:59.381Z,983.38
2022-08-22T01:43:59.995Z,983.39
2022-08-22T01:44:14.117Z,983.39
2022-08-22T01:44:30.781Z,983.38
2022-08-22T01:44:46.117Z,983.39
2022-08-22T01:45:02.728Z,983.41
2022-08-22T01:45:18.389Z,983.4
2022-08-22T01:45:34.973Z,983.4
2022-08-22T01:45:51.272Z,983.4
2022-08-22T01:46:09.681Z,983.39
2022-08-22T01:46:21.997Z,983.4
2022-08-22T01:46:37.767Z,983.4
2022-08-22T01:46:54.477Z,983.39
2022-08-22T01:47:09.704Z,983.4
2022-08-22T01:47:26.760Z,983.41
2022-08-22T01:47:42.260Z,983.39
2022-08-22T01:47:58.398Z,983.39
2022-08-22T01:48:13.982Z,983.38
2022-08-22T01:48:30.792Z,983.4
2022-08-22T01:48:46.004Z,983.39
2022-08-22T01:49:02.666Z,983.4
2022-08-22T01:49:18.660Z,983.4
2022-08-22T01:49:33.947Z,983.39
2022-08-22T01:49:50.503Z,983.38
2022-08-22T01:50:06.148Z,983.39
2022-08-22T01:50:22.151Z,983.39
2022-08-22T01:50:39.157Z,983.39
2022-08-22T01:50:55.779Z,983.39
2022-08-22T01:51:09.768Z,983.38
2022-08-22T01:51:26.725Z,983.38
2022-08-22T01:51:43.852Z,983.38
2022-08-22T01:51:59.234Z,983.38
2022-08-22T01:52:13.888Z,983.37
2022-08-22T01:52:29.852Z,983.36
2022-08-22T01:52:46.311Z,983.37
2022-08-22T01:53:01.760Z,983.35
2022-08-22T01:53:18.583Z,983.36
2022-08-22T01:53:33.736Z,983.35
2022-08-22T01:53:50.281Z,983.35
2022-08-22T01:54:05.786Z,983.35
2022-08-22T01:54:23.054Z,983.33
2022-08-22T01:54:38.405Z,983.33
2022-08-22T01:54:53.315Z,983.33
2022-08-22T01:55:10.737Z,983.33
2022-08-22T01:55:25.672Z,983.33
2022-08-22T01:55:42.085Z,983.33
2022-08-22T01:55:59.670Z,983.32
2022-08-22T01:56:14.954Z,983.33
2022-08-22T01:56:29.813Z,983.33
2022-08-22T01:56:46.853Z,983.33
2022-08-22T01:57:01.816Z,983.32
2022-08-22T01:57:18.772Z,983.32
2022-08-22T01:57:34.570Z,983.32
2022-08-22T01:57:49.884Z,983.33
2022-08-22T01:58:06.090Z,983.34
2022-08-22T01:58:21.714Z,983.33
2022-08-22T01:58:38.863Z,983.33
2022-08-22T01:58:55.322Z,983.35
2022-08-22T01:59:11.189Z,983.36
2022-08-22T01:59:33.727Z,983.36
2022-08-22T01:59:42.988Z,983.35
2022-08-22T01:59:57.868Z,983.35
2022-08-22T02:00:13.740Z,983.34
2022-08-22T02:00:35.333Z,983.34
2022-08-22T02:00:45.834Z,983.34
2022-08-22T02:01:03.723Z,983.33
2022-08-22T02:01:17.767Z,983.33
2022-08-22T02:01:36.701Z,983.33
2022-08-22T02:01:50.261Z,983.33
2022-08-22T02:02:06.471Z,983.33
2022-08-22T02:02:22.348Z,983.33
2022-08-22T02:02:39.257Z,983.33
2022-08-22T02:02:53.889Z,983.33
2022-08-22T02:03:09.739Z,983.32
2022-08-22T02:03:26.247Z,983.35
2022-08-22T02:03:41.388Z,983.34
2022-08-22T02:03:58.147Z,983.34
2022-08-22T02:04:13.986Z,983.33
2022-08-22T02:04:30.535Z,983.34
2022-08-22T02:04:45.826Z,983.33
2022-08-22T02:05:02.421Z,983.34
2022-08-22T02:05:19.326Z,983.34
2022-08-22T02:05:37.670Z,983.34
2022-08-22T02:05:52.057Z,983.33
2022-08-22T02:06:05.780Z,983.32
2022-08-22T02:06:21.961Z,983.33
2022-08-22T02:06:37.883Z,983.32
2022-08-22T02:06:54.499Z,983.32
2022-08-22T02:07:09.831Z,983.3
2022-08-22T02:07:31.916Z,983.3
2022-08-22T02:07:41.740Z,983.31
2022-08-22T02:07:58.813Z,983.28
2022-08-22T02:08:15.759Z,983.27
2022-08-22T02:08:29.436Z,983.24
2022-08-22T02:08:46.098Z,983.24
2022-08-22T02:09:01.923Z,983.24
2022-08-22T02:09:18.699Z,983.24
2022-08-22T02:09:33.743Z,983.23
2022-08-22T02:09:50.535Z,983.22
2022-08-22T02:10:05.886Z,983.23
2022-08-22T02:10:22.766Z,983.23
2022-08-22T02:10:37.833Z,983.23
2022-08-22T02:10:55.044Z,983.22
2022-08-22T02:11:10.612Z,983.23
2022-08-22T02:11:26.101Z,983.23
2022-08-22T02:11:42.428Z,983.23
2022-08-22T02:11:58.228Z,983.22
2022-08-22T02:12:21.839Z,983.22
2022-08-22T02:12:29.908Z,983.22
2022-08-22T02:12:46.851Z,983.2
2022-08-22T02:13:03.533Z,983.2
2022-08-22T02:13:18.929Z,983.22
2022-08-22T02:13:34.531Z,983.23
2022-08-22T02:13:51.338Z,983.23
2022-08-22T02:14:05.935Z,983.23
2022-08-22T02:14:21.822Z,983.25
2022-08-22T02:14:37.959Z,983.23
2022-08-22T02:14:53.506Z,983.22
2022-08-22T02:15:10.897Z,983.23
2022-08-22T02:15:27.124Z,983.22
2022-08-22T02:15:43.941Z,983.22
2022-08-22T02:15:58.486Z,983.22
2022-08-22T02:16:14.382Z,983.22
2022-08-22T02:16:30.501Z,983.22
2022-08-22T02:16:46.902Z,983.22
2022-08-22T02:17:02.771Z,983.22
2022-08-22T02:17:18.801Z,983.19
2022-08-22T02:17:34.154Z,983.2
2022-08-22T02:17:50.175Z,983.2
2022-08-22T02:18:22.212Z,983.19
2022-08-22T02:18:38.673Z,983.19
2022-08-22T02:18:54.554Z,983.18
2022-08-22T02:19:09.308Z,983.18
2022-08-22T02:19:26.264Z,983.16
2022-08-22T02:19:41.572Z,983.17
2022-08-22T02:19:58.014Z,983.17
2022-08-22T02:20:14.106Z,983.17
2022-08-22T02:20:31.693Z,983.16
2022-08-22T02:20:45.994Z,983.16
2022-08-22T02:21:02.836Z,983.16
2022-08-22T02:21:18.415Z,983.18
2022-08-22T02:21:34.846Z,983.17
2022-08-22T02:21:50.360Z,983.15
2022-08-22T02:22:05.624Z,983.14
2022-08-22T02:22:22.563Z,983.15
2022-08-22T02:22:37.587Z,983.13
2022-08-22T02:22:54.755Z,983.13
2022-08-22T02:23:09.642Z,983.12
2022-08-22T02:23:26.475Z,983.11
2022-08-22T02:23:44.514Z,983.09
2022-08-22T02:23:58.475Z,983.09
2022-08-22T02:24:14.399Z,983.09
2022-08-22T02:24:30.820Z,983.1
2022-08-22T02:24:47.600Z,983.1
2022-08-22T02:25:01.689Z,983.1
2022-08-22T02:25:18.520Z,983.1
2022-08-22T02:25:35.133Z,983.11
2022-08-22T02:25:50.834Z,983.1
2022-08-22T02:26:06.199Z,983.1
2022-08-22T02:26:24.342Z,983.1
2022-08-22T02:26:37.737Z,983.09
2022-08-22T02:26:54.327Z,983.08
2022-08-22T02:27:10.529Z,983.08
2022-08-22T02:27:25.122Z,983.08
2022-08-22T02:27:43.205Z,983.08
2022-08-22T02:27:58.309Z,983.07
2022-08-22T02:28:14.411Z,983.07
2022-08-22T02:28:29.867Z,983.06
2022-08-22T02:28:57.099Z,983.07
2022-08-22T02:29:01.962Z,983.06
2022-08-22T02:29:18.841Z,983.06
2022-08-22T02:29:34.280Z,983.06
2022-08-22T02:29:52.103Z,983.06
2022-08-22T02:30:06.226Z,983.07
2022-08-22T02:30:21.756Z,983.07
2022-08-22T02:30:38.357Z,983.06
2022-08-22T02:30:53.878Z,983.07
2022-08-22T02:31:10.104Z,983.05
2022-08-22T02:31:26.024Z,983.05
2022-08-22T02:31:42.914Z,983.05
2022-08-22T02:31:57.599Z,983.06
2022-08-22T02:32:15.110Z,983.05
2022-08-22T02:32:29.709Z,983.06
2022-08-22T02:32:45.906Z,983.06
2022-08-22T02:33:01.934Z,983.06
2022-08-22T02:33:17.228Z,983.05
2022-08-22T02:33:34.581Z,983.05
2022-08-22T02:33:49.956Z,983.05
2022-08-22T02:34:06.091Z,983.05
2022-08-22T02:34:23.158Z,983.05
2022-08-22T02:34:38.158Z,983.06
2022-08-22T02:34:54.137Z,983.05
2022-08-22T02:35:10.663Z,983.06
2022-08-22T02:35:25.708Z,983.06
2022-08-22T02:35:42.034Z,983.07
2022-08-22T02:36:13.449Z,983.06
2022-08-22T02:36:30.836Z,983.05
2022-08-22T02:36:45.568Z,983.07
2022-08-22T02:37:02.577Z,983.06
2022-08-22T02:37:18.126Z,983.06
2022-08-22T02:37:34.504Z,983.06
2022-08-22T02:37:50.927Z,983.06
2022-08-22T02:38:07.076Z,983.06
2022-08-22T02:38:22.192Z,983.07
2022-08-22T02:38:37.444Z,983.07
2022-08-22T02:38:54.577Z,983.07
2022-08-22T02:39:11.328Z,983.07
2022-08-22T02:39:26.810Z,983.07
2022-08-22T02:39:43.421Z,983.08
2022-08-22T02:39:58.513Z,983.07
2022-08-22T02:40:13.810Z,983.08
2022-08-22T02:40:31.468Z,983.09
2022-08-22T02:40:46.408Z,983.1
2022-08-22T02:41:01.557Z,983.1
2022-08-22T02:41:18.140Z,983.08
2022-08-22T02:41:33.951Z,983.08
2022-08-22T02:41:50.684Z,983.08
2022-08-22T02:42:05.495Z,983.08
2022-08-22T02:42:22.047Z,983.09
2022-08-22T02:42:37.948Z,983.08
2022-08-22T02:42:54.292Z,983.09
2022-08-22T02:43:10.011Z,983.08
2022-08-22T02:43:26.502Z,983.07
2022-08-22T02:43:41.691Z,983.08
2022-08-22T02:43:57.862Z,983.08
2022-08-22T02:44:14.029Z,983.09
2022-08-22T02:44:29.210Z,983.09
2022-08-22T02:44:46.378Z,983.1
2022-08-22T02:45:02.122Z,983.09
2022-08-22T02:45:18.440Z,983.09
2022-08-22T02:45:35.204Z,983.09
2022-08-22T02:45:53.422Z,983.11
2022-08-22T02:46:05.686Z,983.09
2022-08-22T02:46:22.600Z,983.11
2022-08-22T02:46:40.433Z,983.11
2022-08-22T02:46:53.514Z,983.11
2022-08-22T02:47:11.217Z,983.11
2022-08-22T02:47:25.623Z,983.11
2022-08-22T02:47:42.770Z,983.11
2022-08-22T02:47:58.212Z,983.1
2022-08-22T02:48:15.866Z,983.1
2022-08-22T02:48:29.555Z,983.12
2022-08-22T02:48:47.156Z,983.12
2022-08-22T02:49:03.347Z,983.13
2022-08-22T02:49:17.098Z,983.13
2022-08-22T02:49:33.842Z,983.13
2022-08-22T02:49:50.108Z,983.13
2022-08-22T02:50:05.917Z,983.13
2022-08-22T02:50:22.150Z,983.13
2022-08-22T02:50:38.067Z,983.13
2022-08-22T02:50:53.929Z,983.13
2022-08-22T02:51:11.829Z,983.12
2022-08-22T02:51:25.616Z,983.12
2022-08-22T02:51:41.032Z,983.14
2022-08-22T02:51:58.185Z,983.14
2022-08-22T02:52:13.827Z,983.14
2022-08-22T02:52:30.090Z,983.13
2022-08-22T02:52:45.641Z,983.14
2022-08-22T02:53:04.650Z,983.13
2022-08-22T02:53:18.007Z,983.14
2022-08-22T02:53:34.395Z,983.13
2022-08-22T02:53:49.728Z,983.13
2022-08-22T02:54:07.004Z,983.13
2022-08-22T02:54:23.702Z,983.14
2022-08-22T02:54:38.415Z,983.15
2022-08-22T02:54:54.133Z,983.15
2022-08-22T02:55:10.871Z,983.16
2022-08-22T02:55:26.384Z,983.16
2022-08-22T02:55:41.549Z,983.15
2022-08-22T02:55:58.129Z,983.17
2022-08-22T02:56:13.413Z,983.17
2022-08-22T02:56:30.609Z,983.16
2022-08-22T02:56:45.948Z,983.16
2022-08-22T02:57:04.375Z,983.14
2022-08-22T02:57:19.856Z,983.15
2022-08-22T02:57:33.838Z,983.13
2022-08-22T02:57:50.347Z,983.14
2022-08-22T02:58:06.023Z,983.15
2022-08-22T02:58:21.905Z,983.15
2022-08-22T02:58:37.713Z,983.15
2022-08-22T02:58:54.141Z,983.16
2022-08-22T02:59:11.175Z,983.16
2022-08-22T02:59:26.286Z,983.16
2022-08-22T02:59:41.600Z,983.16
2022-08-22T02:59:57.866Z,983.16
2022-08-22T03:00:31.122Z,983.16
2022-08-22T03:00:32.253Z,983.15
2022-08-22T03:00:46.594Z,983.16
2022-08-22T03:01:01.882Z,983.16
2022-08-22T03:01:20.047Z,983.16
2022-08-22T03:01:34.249Z,983.17
2022-08-22T03:01:50.930Z,983.16
2022-08-22T03:02:07.255Z,983.15
2022-08-22T03:02:22.954Z,983.14
2022-08-22T03:02:38.089Z,983.14
2022-08-22T03:02:53.716Z,983.14
2022-08-22T03:03:09.829Z,983.14
2022-08-22T03:03:28.409Z,983.14
2022-08-22T03:03:42.096Z,983.15
2022-08-22T03:03:57.419Z,983.15
2022-08-22T03:04:14.323Z,983.15
2022-08-22T03:04:29.722Z,983.14
2022-08-22T03:04:46.189Z,983.15
2022-08-22T03:05:02.975Z,983.15
2022-08-22T03:05:16.960Z,983.14
2022-08-22T03:05:33.793Z,983.14
2022-08-22T03:05:49.493Z,983.12
2022-08-22T03:06:06.499Z,983.12
2022-08-22T03:06:22.211Z,983.13
2022-08-22T03:06:37.872Z,983.12
2022-08-22T03:06:53.390Z,983.12
2022-08-22T03:07:10.517Z,983.14
2022-08-22T03:07:26.122Z,983.13
2022-08-22T03:07:42.946Z,983.11
2022-08-22T03:07:57.661Z,983.11
2022-08-22T03:08:13.837Z,983.11
2022-08-22T03:08:30.164Z,983.12
2022-08-22T03:08:47.600Z,983.11
2022-08-22T03:09:02.181Z,983.1
2022-08-22T03:09:18.117Z,983.1
2022-08-22T03:09:35.182Z,983.1
2022-08-22T03:09:50.171Z,983.1
2022-08-22T03:10:06.595Z,983.11
2022-08-22T03:10:21.609Z,983.1
2022-08-22T03:10:37.355Z,983.08
2022-08-22T03:10:54.475Z,983.06
2022-08-22T03:11:09.892Z,983.06
2022-08-22T03:11:26.561Z,983.08
2022-08-22T03:11:41.256Z,983.09
2022-08-22T03:11:57.825Z,983.08
2022-08-22T03:12:14.089Z,983.07
2022-08-22T03:12:32.169Z,983.07
2022-08-22T03:12:46.111Z,983.09
2022-08-22T03:13:02.417Z,983.08
2022-08-22T03:13:18.560Z,983.08
2022-08-22T03:13:33.574Z,983.09
2022-08-22T03:13:50.136Z,983.08
2022-08-22T03:14:05.722Z,983.09
2022-08-22T03:14:21.702Z,983.09
2022-08-22T03:14:37.635Z,983.08
2022-08-22T03:14:54.094Z,983.08
2022-08-22T03:15:10.010Z,983.08
2022-08-22T03:15:26.597Z,983.08
2022-08-22T03:15:48.388Z,983.06